Time;durP1;ratioP1;P1;durP2;ratioP2;P2;SDS_P1;SDS_P2;PMS_P1;PMS_P2;Temp;Humidity;BMP_temperature;BMP_pressure;BME280_temperature;BME280_humidity;BME280_pressure;Samples;Min_cycle;Max_cycle;Signal;HPM_P1;HPM_P2
2022/06/03 00:00:25;;;;;;;10.32;8.78;;;;;;;10.81;72.12;101370.41;1663442;84;26618;-78
2022/06/03 00:03:11;;;;;;;13.35;8.80;;;;;;;10.76;72.03;101369.22;1683223;84;25778;-78
2022/06/03 00:06:21;;;;;;;13.90;9.50;;;;;;;10.71;71.94;101376.42;1679602;84;28265;-78
2022/06/03 00:09:05;;;;;;;13.48;9.88;;;;;;;10.72;72.15;101376.77;1703877;83;26467;-78
2022/06/03 00:12:01;;;;;;;13.40;11.22;;;;;;;10.72;72.23;101378.61;1696684;82;26508;-78
2022/06/03 00:15:05;;;;;;;14.50;10.35;;;;;;;10.65;72.05;101382.46;1685516;84;26259;-78
2022/06/03 00:17:51;;;;;;;10.28;9.13;;;;;;;10.61;71.99;101386.98;1700096;82;25922;-78
2022/06/03 00:21:00;;;;;;;10.40;9.30;;;;;;;10.60;72.14;101377.28;1702369;82;27476;-78
2022/06/03 00:24:05;;;;;;;11.10;9.65;;;;;;;10.57;72.09;101375.77;1719306;82;25339;-78
2022/06/03 00:27:02;;;;;;;9.93;8.93;;;;;;;10.56;72.31;101380.78;1706879;82;25917;-79
2022/06/03 00:30:00;;;;;;;12.03;9.93;;;;;;;10.54;72.39;101381.98;1718753;82;25891;-79
2022/06/03 00:32:43;;;;;;;10.25;8.73;;;;;;;10.46;72.34;101377.44;1704262;82;25944;-78
2022/06/03 00:35:25;;;;;;;13.45;9.40;;;;;;;10.39;72.14;101381.78;1728453;82;27433;-78
2022/06/03 00:38:11;;;;;;;15.78;9.13;;;;;;;10.36;72.49;101386.14;1664281;82;26347;-78
2022/06/03 00:41:07;;;;;;;9.78;8.78;;;;;;;10.31;72.28;101384.45;1726038;82;26466;-79
2022/06/03 00:43:48;;;;;;;12.58;9.10;;;;;;;10.25;72.25;101389.14;1721154;82;25787;-78
2022/06/03 00:46:52;;;;;;;13.03;8.95;;;;;;;10.27;72.64;101392.48;1711718;82;26174;-78
2022/06/03 00:49:44;;;;;;;11.33;8.75;;;;;;;10.25;72.51;101388.30;1724795;82;28313;-79
2022/06/03 00:52:36;;;;;;;10.93;9.23;;;;;;;10.19;72.33;101386.28;1729014;82;25858;-78
2022/06/03 00:55:29;;;;;;;11.33;9.05;;;;;;;10.12;72.37;101391.45;1733150;82;25907;-77
2022/06/03 00:58:33;;;;;;;10.95;8.83;;;;;;;10.07;72.37;101390.58;1719621;82;25851;-78
2022/06/03 01:01:25;;;;;;;12.18;9.20;;;;;;;10.02;72.37;101387.58;1710716;82;25884;-78
2022/06/03 01:03:57;;;;;;;14.50;10.75;;;;;;;10.00;72.65;101390.08;1710806;82;28252;-79
2022/06/03 01:06:49;;;;;;;15.23;11.20;;;;;;;10.00;72.82;101389.58;1703592;82;25970;-78
2022/06/03 01:09:24;;;;;;;14.30;10.58;;;;;;;9.97;72.73;101391.72;1709192;82;25700;-78
2022/06/03 01:12:10;;;;;;;14.28;9.63;;;;;;;9.91;72.74;101387.03;1711847;82;25871;-78
2022/06/03 01:15:03;;;;;;;13.30;10.00;;;;;;;9.85;72.59;101387.69;1730795;82;25832;-78
2022/06/03 01:18:05;;;;;;;13.03;9.45;;;;;;;9.78;72.52;101388.84;1714433;82;27531;-78
2022/06/03 01:21:00;;;;;;;16.50;9.63;;;;;;;9.76;72.64;101381.97;1705711;82;26479;-78
2022/06/03 01:23:49;;;;;;;15.00;9.48;;;;;;;9.71;72.39;101380.30;1727356;82;26473;-78
2022/06/03 01:26:30;;;;;;;12.45;10.00;;;;;;;9.68;72.59;101386.80;1716769;82;26255;-79
2022/06/03 01:29:40;;;;;;;15.03;9.85;;;;;;;9.65;72.57;101387.61;1718437;82;25833;-79
2022/06/03 01:32:40;;;;;;;12.90;9.73;;;;;;;9.63;72.61;101377.57;1721342;82;27448;-79
2022/06/03 01:35:43;;;;;;;15.80;10.45;;;;;;;9.57;72.66;101380.89;1717221;82;26486;-79
2022/06/03 01:38:40;;;;;;;12.50;10.53;;;;;;;9.51;72.78;101379.72;1723408;82;26476;-78
2022/06/03 01:41:48;;;;;;;17.23;11.00;;;;;;;9.51;73.28;101374.37;1714017;82;26429;-79
2022/06/03 01:44:44;;;;;;;16.45;10.82;;;;;;;9.51;73.31;101378.88;1703724;82;25778;-78
2022/06/03 01:47:51;;;;;;;15.23;10.35;;;;;;;9.44;73.16;101376.49;1724415;82;27456;-78
2022/06/03 01:50:47;;;;;;;13.53;10.93;;;;;;;9.32;72.93;101379.97;1727878;82;25883;-79
2022/06/03 01:53:46;;;;;;;13.45;10.53;;;;;;;9.23;73.10;101376.41;1718519;82;25853;-79
2022/06/03 01:56:35;;;;;;;15.15;11.12;;;;;;;9.16;72.99;101375.85;1711959;82;25809;-78
2022/06/03 01:59:35;;;;;;;15.20;10.00;;;;;;;9.05;72.66;101371.62;1716907;82;26015;-77
2022/06/03 02:02:39;;;;;;;12.40;9.65;;;;;;;9.03;72.98;101375.44;1719829;82;27993;-78
2022/06/03 02:05:45;;;;;;;13.22;9.98;;;;;;;9.01;73.38;101376.94;1727693;82;26257;-79
2022/06/03 02:09:01;;;;;;;14.53;10.45;;;;;;;9.00;73.20;101374.44;1718446;82;25865;-77
2022/06/03 02:11:44;;;;;;;13.78;9.80;;;;;;;8.94;73.15;101379.08;1723418;82;26110;-78
2022/06/03 02:14:40;;;;;;;14.05;9.45;;;;;;;8.89;73.16;101379.55;1725891;82;26407;-78
2022/06/03 02:17:32;;;;;;;12.18;8.58;;;;;;;8.88;73.28;101373.00;1699020;82;27467;-78
2022/06/03 02:20:27;;;;;;;12.10;9.30;;;;;;;8.82;73.18;101372.30;1706465;83;26477;-78
2022/06/03 02:23:17;;;;;;;13.03;9.33;;;;;;;8.74;73.06;101373.58;1707707;82;25748;-77
2022/06/03 02:26:08;;;;;;;14.90;8.98;;;;;;;8.72;73.36;101376.91;1710782;83;25805;-78
2022/06/03 02:32:27;;;;;;;12.53;9.58;;;;;;;8.69;73.70;101369.20;1714412;82;28289;-78
2022/06/03 02:35:11;;;;;;;14.28;9.00;;;;;;;8.69;74.08;101370.53;1702701;83;26544;-78
2022/06/03 02:38:18;;;;;;;12.45;8.48;;;;;;;8.66;73.98;101370.86;1704158;82;25728;-78
2022/06/03 02:41:28;;;;;;;12.82;8.55;;;;;;;8.60;73.71;101372.83;1701783;83;26139;-78
2022/06/03 02:44:30;;;;;;;11.38;8.33;;;;;;;8.54;73.95;101376.45;1699838;83;26034;-78
2022/06/03 02:47:36;;;;;;;10.68;8.73;;;;;;;8.53;74.08;101378.75;1709637;83;28413;-78
2022/06/03 02:50:17;;;;;;;14.73;8.90;;;;;;;8.53;74.11;101371.27;1684987;83;26014;-78
2022/06/03 02:53:05;;;;;;;;;;;;;;;8.53;74.10;101380.09;1723185;83;25523;-78
2022/06/03 02:56:12;;;;;;;11.38;8.48;;;;;;;8.49;74.13;101378.73;1665692;83;25844;-79
2022/06/03 02:59:07;;;;;;;13.62;9.30;;;;;;;8.47;74.30;101381.20;1695879;83;25879;-78
2022/06/03 03:02:23;;;;;;;19.17;10.60;;;;;;;8.53;74.84;101387.29;1701926;83;27482;-78
2022/06/03 03:05:32;;;;;;;16.50;11.30;;;;;;;8.53;75.00;101390.77;1712884;83;26015;-79
2022/06/03 03:08:11;;;;;;;13.75;10.45;;;;;;;8.56;75.24;101392.30;1719373;83;25797;-78
2022/06/03 03:10:49;;;;;;;14.95;10.30;;;;;;;8.60;75.37;101392.33;1700442;83;26291;-78
2022/06/03 03:14:03;;;;;;;13.75;10.88;;;;;;;8.67;75.60;101398.73;1721079;83;26584;-78
2022/06/03 03:16:56;;;;;;;13.10;9.55;;;;;;;8.74;76.00;101404.30;1719607;83;27518;-78
2022/06/03 03:19:37;;;;;;;10.88;9.10;;;;;;;8.77;76.08;101404.81;1700591;82;26557;-78
2022/06/03 03:22:29;;;;;;;;;;;;;;;8.84;76.49;101406.37;1711165;83;25846;-78
2022/06/03 03:25:26;;;;;;;17.42;10.48;;;;;;;8.88;77.13;101410.41;1711484;82;25977;-78
2022/06/03 03:28:26;;;;;;;16.00;10.30;;;;;;;8.93;77.01;101408.11;1710334;82;26625;-78
2022/06/03 03:31:25;;;;;;;14.87;9.88;;;;;;;8.98;76.99;101406.64;1704885;82;27480;-78
2022/06/03 03:34:22;;;;;;;12.40;8.75;;;;;;;9.04;76.67;101403.36;1605344;87;25949;-78
2022/06/03 03:37:16;;;;;;;11.60;8.38;;;;;;;9.12;76.87;101416.77;1713660;82;25886;-78
2022/06/03 03:40:06;;;;;;;10.45;7.90;;;;;;;9.19;76.93;101420.50;1689165;83;26690;-77
2022/06/03 03:42:53;;;;;;;10.53;8.10;;;;;;;9.25;76.82;101420.35;1706673;83;25829;-78
2022/06/03 03:45:47;;;;;;;12.28;7.35;;;;;;;9.32;76.88;101424.08;1706096;83;27538;-77
2022/06/03 03:48:40;;;;;;;9.10;7.58;;;;;;;9.36;76.95;101427.27;1717162;82;26040;-78
2022/06/03 03:51:20;;;;;;;16.55;8.13;;;;;;;9.39;77.03;101430.45;1708855;83;26512;-79
2022/06/03 03:54:29;;;;;;;9.45;7.83;;;;;;;9.43;77.37;101437.67;1700517;82;25945;-78
2022/06/03 03:57:30;;;;;;;12.03;7.28;;;;;;;9.46;77.60;101436.84;1702206;83;25934;-78
2022/06/03 04:00:26;;;;;;;7.90;7.10;;;;;;;9.52;77.96;101438.03;1687094;83;28184;-77
2022/06/03 04:03:15;;;;;;;11.38;8.35;;;;;;;9.63;78.27;101439.94;1709488;83;26552;-78
2022/06/03 04:06:07;;;;;;;15.23;10.80;;;;;;;9.77;78.75;101443.33;1717441;83;25775;-77
2022/06/03 04:09:08;;;;;;;11.18;9.43;;;;;;;9.94;79.98;101447.75;1714619;83;26316;-78
2022/06/03 04:11:57;;;;;;;12.78;10.55;;;;;;;10.14;80.47;101447.02;1701247;83;26014;-77
2022/06/03 04:14:53;;;;;;;15.60;10.28;;;;;;;10.34;81.09;101452.42;1701923;83;27576;-78
2022/06/03 04:17:33;;;;;;;14.38;11.20;;;;;;;10.50;81.08;101452.44;1717389;83;25782;-77
2022/06/03 04:20:17;;;;;;;13.25;11.08;;;;;;;10.65;81.25;101456.14;1704104;83;26670;-78
2022/06/03 04:23:12;;;;;;;15.00;10.95;;;;;;;10.80;81.55;101453.13;1700154;83;26261;-77
2022/06/03 04:26:19;;;;;;;14.47;10.32;;;;;;;10.96;82.17;101452.30;1702171;83;25801;-77
2022/06/03 04:29:03;;;;;;;15.18;10.80;;;;;;;11.14;82.07;101453.47;1707603;83;28295;-77
2022/06/03 04:32:14;;;;;;;13.75;11.45;;;;;;;11.30;81.90;101457.45;1729983;81;25801;-77
2022/06/03 04:35:09;;;;;;;16.27;11.15;;;;;;;11.42;82.36;101446.19;1731899;81;25931;-78
2022/06/03 04:38:17;;;;;;;14.28;10.10;;;;;;;11.58;82.52;101454.70;1685689;83;25648;-77
2022/06/03 04:41:22;;;;;;;13.35;10.20;;;;;;;11.73;82.10;101455.69;1705945;83;26438;-76
2022/06/03 04:43:57;;;;;;;11.35;10.15;;;;;;;11.87;82.18;101460.32;1720748;81;27592;-77
2022/06/03 04:46:50;;;;;;;13.48;10.23;;;;;;;12.01;82.33;101459.61;1737568;81;25731;-78
2022/06/03 04:49:40;;;;;;;11.08;9.40;;;;;;;12.12;82.57;101469.97;1712517;82;25768;-77
2022/06/03 04:52:21;;;;;;;14.60;10.47;;;;;;;12.24;82.57;101463.67;1711471;82;26707;-78
2022/06/03 04:55:04;;;;;;;13.03;9.95;;;;;;;12.36;82.83;101471.15;1716516;82;25823;-77
2022/06/03 04:58:02;;;;;;;10.95;8.70;;;;;;;12.50;82.69;101472.75;1721656;82;28293;-78
2022/06/03 05:01:01;;;;;;;11.45;9.05;;;;;;;12.63;82.48;101474.34;1715903;82;25803;-77
2022/06/03 05:04:13;;;;;;;9.53;8.53;;;;;;;12.75;81.89;101475.09;1718158;82;25767;-77
2022/06/03 05:07:00;;;;;;;;;;;;;;;12.88;82.10;101480.70;1720859;82;25895;-77
2022/06/03 05:09:56;;;;;;;9.68;8.60;;;;;;;13.00;81.70;101479.25;1702952;82;25925;-77
2022/06/03 05:12:56;;;;;;;9.90;8.50;;;;;;;13.11;81.55;101485.58;1701062;82;27477;-77
2022/06/03 05:15:47;;;;;;;9.83;8.83;;;;;;;13.26;81.89;101482.92;1716130;82;26007;-78
2022/06/03 05:18:55;;;;;;;11.50;8.30;;;;;;;13.38;81.23;101485.51;1715914;82;25828;-77
2022/06/03 05:21:44;;;;;;;9.10;8.20;;;;;;;13.48;81.07;101482.03;1698696;82;25800;-78
2022/06/03 05:24:27;;;;;;;9.80;8.00;;;;;;;13.62;80.81;101486.58;1704597;82;25789;-77
2022/06/03 05:27:32;;;;;;;10.05;8.33;;;;;;;13.76;80.79;101487.62;1708566;82;27476;-78
2022/06/03 05:30:19;;;;;;;8.83;7.78;;;;;;;13.88;81.32;101484.27;1711972;83;25853;-77
2022/06/03 05:32:52;;;;;;;8.25;7.45;;;;;;;14.01;80.52;101488.98;1682777;82;25815;-77
2022/06/03 05:35:51;;;;;;;8.25;6.67;;;;;;;14.16;80.26;101498.39;1708654;83;25802;-77
2022/06/03 05:38:34;;;;;;;8.43;7.30;;;;;;;14.28;79.98;101497.75;1707078;83;25752;-77
2022/06/03 05:44:52;;;;;;;7.92;6.72;;;;;;;14.57;79.71;101499.05;1647591;83;26021;-78
2022/06/03 05:47:33;;;;;;;8.60;5.95;;;;;;;14.74;78.80;101498.78;1714516;83;25879;-77
2022/06/03 05:50:44;;;;;;;6.30;5.53;;;;;;;14.88;79.12;101495.21;1704002;83;26124;-77
2022/06/03 05:53:40;;;;;;;6.92;6.22;;;;;;;15.00;77.51;101496.36;1717329;83;25808;-77
2022/06/03 05:56:49;;;;;;;7.33;5.40;;;;;;;15.14;76.88;101486.83;1694480;83;28364;-77
2022/06/03 05:59:49;;;;;;;6.10;5.60;;;;;;;15.28;76.85;101485.92;1719628;83;25842;-78
2022/06/03 06:02:48;;;;;;;5.58;5.08;;;;;;;15.44;76.50;101491.05;1718905;83;25832;-78
2022/06/03 06:05:32;;;;;;;8.85;5.90;;;;;;;15.60;76.10;101491.27;1715512;83;26201;-77
2022/06/03 06:08:38;;;;;;;9.63;6.22;;;;;;;15.75;76.13;101493.84;1715593;83;25781;-77
2022/06/03 06:11:30;;;;;;;6.42;5.85;;;;;;;15.89;76.38;101486.12;1717645;83;28284;-78
2022/06/03 06:14:44;;;;;;;6.60;5.58;;;;;;;16.03;75.38;101493.28;1704294;82;26754;-77
2022/06/03 06:17:41;;;;;;;9.28;5.20;;;;;;;16.16;75.15;101490.64;1713023;83;26442;-77
2022/06/03 06:20:16;;;;;;;8.28;5.17;;;;;;;16.34;74.29;101494.16;1711769;83;26023;-78
2022/06/03 06:22:48;;;;;;;8.03;5.33;;;;;;;16.46;73.82;101497.92;1721996;82;25870;-78
2022/06/03 06:25:29;;;;;;;6.55;5.92;;;;;;;16.59;73.92;101502.91;1720310;82;27481;-78
2022/06/03 06:28:36;;;;;;;7.25;5.05;;;;;;;16.71;73.70;101499.91;1721149;81;26543;-77
2022/06/03 06:31:14;;;;;;;5.70;5.00;;;;;;;16.84;73.21;101498.58;1729908;82;25883;-77
2022/06/03 06:33:51;;;;;;;8.58;5.60;;;;;;;17.01;72.37;101498.17;1735908;81;25882;-78
2022/06/03 06:36:50;;;;;;;6.67;5.22;;;;;;;17.13;71.66;101500.05;1715353;81;25836;-77
2022/06/03 06:39:59;;;;;;;6.83;5.03;;;;;;;17.24;71.84;101490.47;1701036;82;27946;-77
2022/06/03 06:42:51;;;;;;;9.65;5.25;;;;;;;17.38;71.85;101496.20;1710592;82;25884;-76
2022/06/03 06:45:29;;;;;;;4.92;4.28;;;;;;;17.47;70.46;101493.61;1725602;82;25924;-77
2022/06/03 06:48:13;;;;;;;5.75;4.53;;;;;;;17.57;69.90;101495.39;1701508;82;26439;-78
2022/06/03 06:51:04;;;;;;;4.40;4.00;;;;;;;17.69;70.43;101499.11;1714416;82;25773;-78
2022/06/03 06:53:54;;;;;;;5.35;4.30;;;;;;;17.82;69.67;101496.38;1701127;82;28138;-78
2022/06/03 06:56:40;;;;;;;4.60;4.20;;;;;;;17.90;68.25;101496.13;1691323;84;26781;-77
2022/06/03 06:59:12;;;;;;;6.03;4.37;;;;;;;17.99;67.94;101494.86;1713607;82;25789;-78
2022/06/03 07:01:43;;;;;;;6.10;3.87;;;;;;;18.12;67.30;101495.34;1658789;82;26310;-78
2022/06/03 07:04:18;;;;;;;4.20;3.80;;;;;;;18.21;66.84;101493.55;1715438;82;25786;-77
2022/06/03 07:06:56;;;;;;;5.05;3.70;;;;;;;18.29;65.72;101496.00;1729083;82;27440;-78
2022/06/03 07:09:44;;;;;;;6.20;3.72;;;;;;;18.37;65.43;101493.55;1739235;80;25986;-78
2022/06/03 07:12:14;;;;;;;5.70;3.90;;;;;;;18.46;65.47;101494.49;1730659;82;25868;-78
2022/06/03 07:14:58;;;;;;;3.60;3.27;;;;;;;18.55;65.13;101487.45;1726228;82;26303;-77
2022/06/03 07:20:59;;;;;;;6.45;3.40;;;;;;;18.69;64.10;101488.51;1726561;81;28179;-78
2022/06/03 07:23:40;;;;;;;5.05;2.75;;;;;;;18.78;63.67;101480.94;1727869;82;26507;-78
2022/06/03 07:26:24;;;;;;;3.10;2.50;;;;;;;18.85;61.87;101481.73;1729243;80;25886;-77
2022/06/03 07:29:14;;;;;;;5.40;3.00;;;;;;;18.92;60.91;101482.01;1728410;82;25815;-78
2022/06/03 07:32:10;;;;;;;3.65;3.33;;;;;;;18.96;61.62;101480.52;1721540;82;25978;-78
2022/06/03 07:34:59;;;;;;;5.92;4.00;;;;;;;19.07;61.84;101483.05;1689829;82;27468;-78
2022/06/03 07:37:54;;;;;;;4.10;3.70;;;;;;;19.14;61.69;101480.56;1713977;82;26535;-77
2022/06/03 07:40:29;;;;;;;4.83;3.00;;;;;;;19.26;62.20;101475.25;1713811;82;25601;-78
2022/06/03 07:43:21;;;;;;;3.42;2.20;;;;;;;19.35;61.68;101469.05;1713474;82;25858;-77
2022/06/03 07:46:08;;;;;;;2.37;2.17;;;;;;;19.43;61.14;101466.88;1732040;82;25946;-78
2022/06/03 07:48:36;;;;;;;2.90;2.50;;;;;;;19.53;60.41;101463.63;1730918;81;27476;-77
2022/06/03 07:51:13;;;;;;;2.77;2.58;;;;;;;19.57;60.02;101454.80;1729104;82;25854;-78
2022/06/03 07:54:07;;;;;;;2.50;2.30;;;;;;;19.63;59.15;101459.33;1731216;82;26520;-78
2022/06/03 07:56:37;;;;;;;2.42;2.22;;;;;;;19.68;59.25;101457.30;1724968;81;25834;-78
2022/06/03 07:59:21;;;;;;;2.62;2.33;;;;;;;19.73;57.92;101458.83;1745896;81;26349;-78
2022/06/03 08:02:02;;;;;;;3.33;2.83;;;;;;;19.79;55.59;101462.00;1730928;81;28349;-78
2022/06/03 08:04:33;;;;;;;1.87;1.75;;;;;;;19.77;55.32;101464.95;1725361;82;25987;-78
2022/06/03 08:12:38;;;;;;;3.50;2.20;;;;;;;19.98;54.48;101469.93;1714707;81;25940;-77
2022/06/03 08:15:19;;;;;;;2.12;1.92;;;;;;;20.05;54.01;101473.09;1714312;82;27622;-78
2022/06/03 08:17:47;;;;;;;;;;;;;;;20.11;53.27;101468.94;1722394;82;25812;-77
2022/06/03 08:20:17;;;;;;;2.12;1.92;;;;;;;20.10;52.11;101467.81;1727506;82;25805;-78
2022/06/03 08:22:45;;;;;;;;;;;;;;;20.12;52.94;101465.17;1715293;81;25857;-78
2022/06/03 08:25:17;;;;;;;3.80;1.90;;;;;;;20.17;52.67;101465.30;1720472;81;25856;-79
2022/06/03 08:27:46;;;;;;;3.60;2.00;;;;;;;20.21;53.60;101463.81;1709019;82;28144;-79
2022/06/03 08:30:24;;;;;;;2.85;1.90;;;;;;;20.26;53.28;101465.33;1718143;82;25844;-78
2022/06/03 08:33:04;;;;;;;2.22;1.70;;;;;;;20.27;51.18;101467.52;1708673;82;26479;-78
2022/06/03 08:35:37;;;;;;;3.30;1.70;;;;;;;20.26;51.28;101459.05;1713821;82;25865;-78
2022/06/03 08:38:22;;;;;;;1.62;1.52;;;;;;;20.26;52.42;101466.69;1709216;82;26527;-78
2022/06/03 08:41:13;;;;;;;3.02;1.82;;;;;;;20.25;50.66;101466.38;1724334;82;27454;-78
2022/06/03 08:44:15;;;;;;;1.98;1.45;;;;;;;20.26;49.87;101471.29;1726460;82;26118;-78
2022/06/03 08:46:59;;;;;;;1.70;1.60;;;;;;;20.35;50.56;101457.68;1714143;82;25785;-78
2022/06/03 08:49:31;;;;;;;2.27;1.50;;;;;;;20.53;51.23;101462.54;1711883;82;26113;-78
2022/06/03 08:52:02;;;;;;;1.37;1.27;;;;;;;20.71;50.88;101458.41;1725939;82;25719;-78
2022/06/03 08:54:45;;;;;;;2.15;1.82;;;;;;;20.82;50.71;101449.97;1727398;81;27460;-78
2022/06/03 08:57:20;;;;;;;4.55;1.85;;;;;;;20.97;50.70;101448.16;1714466;82;25943;-78
2022/06/03 08:59:57;;;;;;;3.02;1.60;;;;;;;21.05;50.51;101456.85;1721651;82;25874;-78
2022/06/03 09:02:56;;;;;;;3.75;1.67;;;;;;;21.14;50.56;101450.00;1719261;82;25764;-78
2022/06/03 09:05:28;;;;;;;1.72;1.62;;;;;;;21.23;49.41;101454.57;1739240;81;25771;-78
2022/06/03 09:08:02;;;;;;;1.75;1.62;;;;;;;21.35;49.46;101443.97;1736382;82;27431;-78
2022/06/03 09:10:49;;;;;;;4.72;1.42;;;;;;;21.47;48.32;101448.03;1716353;82;25993;-78
2022/06/03 09:13:25;;;;;;;1.72;1.62;;;;;;;21.56;48.95;101456.69;1716173;82;25292;-78
2022/06/03 09:15:53;;;;;;;3.83;1.55;;;;;;;21.65;48.38;101457.46;1707693;80;25902;-79
2022/06/03 09:18:27;;;;;;;3.33;1.40;;;;;;;21.69;48.83;101455.91;1658434;84;25842;-78
2022/06/03 09:21:09;;;;;;;2.52;1.50;;;;;;;21.78;48.23;101451.76;1672257;84;27487;-78
2022/06/03 09:23:38;;;;;;;;;;;;;;;21.84;47.32;101449.98;1679505;84;25883;-78
2022/06/03 09:26:08;;;;;;;1.50;1.40;;;;;;;21.89;47.35;101447.37;1678548;84;25767;-78
2022/06/03 09:28:36;;;;;;;1.37;0.90;;;;;;;21.88;46.17;101452.53;1667223;84;26389;-78
2022/06/03 09:31:07;;;;;;;1.32;1.22;;;;;;;21.84;45.04;101444.00;1659203;86;26485;-78
2022/06/03 09:33:36;;;;;;;0.95;0.93;;;;;;;21.77;44.38;101441.91;1667362;85;27444;-78
2022/06/03 09:36:12;;;;;;;1.07;0.98;;;;;;;21.76;44.70;101453.06;1663297;85;26639;-78
2022/06/03 09:38:46;;;;;;;1.45;1.10;;;;;;;21.76;44.16;101455.27;1667252;84;25904;-78
2022/06/03 09:41:14;;;;;;;1.67;1.40;;;;;;;21.75;45.06;101450.86;1667779;84;25898;-78
2022/06/03 09:43:45;;;;;;;1.80;1.40;;;;;;;21.78;45.56;101457.21;1668126;84;25830;-78
2022/06/03 09:46:14;;;;;;;2.40;1.57;;;;;;;21.75;45.52;101450.05;1667001;85;27479;-79
2022/06/03 09:48:42;;;;;;;1.50;1.40;;;;;;;21.64;44.31;101448.97;1667762;85;25835;-78
2022/06/03 09:51:55;;;;;;;1.37;1.27;;;;;;;21.39;44.78;101450.60;1657907;84;25809;-78
2022/06/03 09:53:54;;;;;;;2.25;1.20;;;;;;;21.33;44.87;101453.44;1663633;85;26473;-78
2022/06/03 09:56:29;;;;;;;2.98;1.40;;;;;;;21.38;45.29;101442.11;1667292;85;26018;-79
2022/06/03 09:58:59;;;;;;;1.45;1.12;;;;;;;21.53;46.44;101442.19;1668130;84;28334;-78
2022/06/03 10:01:26;;;;;;;3.42;1.17;;;;;;;21.71;46.60;101451.05;1714962;80;25763;-78
2022/06/03 10:04:00;;;;;;;1.40;1.30;;;;;;;21.84;44.59;101437.19;1728748;82;26045;-78
2022/06/03 10:06:43;;;;;;;1.60;1.30;;;;;;;21.88;44.31;101432.06;1662008;84;26312;-78
2022/06/03 10:18:02;;;;;;;2.65;1.20;;;;;;;22.41;46.25;101429.06;1706395;82;25852;-78
2022/06/03 10:23:49;;;;;;;1.75;1.27;;;;;;;22.48;44.82;101435.18;1646680;81;25806;-79
2022/06/03 10:26:49;;;;;;;1.45;1.20;;;;;;;22.48;44.67;101426.45;1613852;86;27480;-79
2022/06/03 10:29:19;;;;;;;2.17;1.45;;;;;;;22.44;45.23;101433.48;1632300;87;25780;-79
2022/06/03 10:32:06;;;;;;;1.80;1.32;;;;;;;22.46;44.67;101431.87;1633159;86;25782;-79
2022/06/03 10:34:37;;;;;;;1.57;1.47;;;;;;;22.46;45.08;101427.77;1632438;86;25827;-79
2022/06/03 10:37:10;;;;;;;2.25;1.42;;;;;;;22.34;45.42;101429.20;1642407;86;26035;-79
2022/06/03 10:39:38;;;;;;;2.75;1.50;;;;;;;22.19;44.84;101424.81;1641302;86;27436;-78
2022/06/03 10:42:05;;;;;;;4.28;1.47;;;;;;;22.09;43.76;101418.61;1646823;85;25735;-78
2022/06/03 10:44:36;;;;;;;3.50;1.60;;;;;;;22.16;45.02;101422.03;1644714;86;25924;-78
2022/06/03 10:47:11;;;;;;;1.30;1.20;;;;;;;22.24;44.72;101420.27;1637983;86;26522;-78
2022/06/03 10:49:52;;;;;;;1.80;1.25;;;;;;;22.38;45.78;101421.34;1641734;86;25852;-78
2022/06/03 11:01:31;;;;;;;1.60;1.35;;;;;;;22.84;43.92;101415.11;1647426;86;25762;-78
2022/06/03 11:03:58;;;;;;;1.40;1.30;;;;;;;22.86;43.25;101410.80;1642808;86;25774;-79
2022/06/03 11:06:38;;;;;;;1.40;1.20;;;;;;;22.89;43.69;101403.45;1646305;86;27529;-79
2022/06/03 11:09:09;;;;;;;1.70;1.60;;;;;;;22.92;43.68;101399.67;1647527;86;25988;-78
2022/06/03 11:11:44;;;;;;;5.15;1.50;;;;;;;22.96;44.48;101394.03;1647436;85;25861;-78
2022/06/03 11:14:36;;;;;;;1.47;1.30;;;;;;;22.97;42.93;101396.20;1647236;86;25798;-78
2022/06/03 11:17:17;;;;;;;3.47;1.60;;;;;;;22.92;42.41;101392.03;1647504;86;25913;-78
2022/06/03 11:19:48;;;;;;;1.95;1.37;;;;;;;22.95;43.59;101391.52;1634115;86;27742;-77
2022/06/03 11:22:36;;;;;;;2.58;1.50;;;;;;;23.01;43.69;101380.42;1646572;85;26061;-78
2022/06/03 11:25:14;;;;;;;1.35;1.25;;;;;;;22.97;42.13;101386.63;1647384;86;25833;-78
2022/06/03 11:27:52;;;;;;;2.27;1.35;;;;;;;22.83;42.62;101383.95;1629010;86;26514;-78
2022/06/03 11:30:43;;;;;;;7.62;1.32;;;;;;;22.80;41.85;101382.55;1634960;86;25763;-78
2022/06/03 11:33:22;;;;;;;2.55;1.50;;;;;;;22.74;41.64;101380.81;1630095;86;28341;-78
2022/06/03 11:36:13;;;;;;;1.65;1.20;;;;;;;22.60;41.83;101369.93;1638571;86;26529;-78
2022/06/03 11:38:44;;;;;;;;;;;;;;;22.53;42.14;101368.39;1645053;86;25811;-78
2022/06/03 11:41:34;;;;;;;2.40;1.45;;;;;;;22.58;42.62;101370.66;1645489;85;26455;-78
2022/06/03 11:44:41;;;;;;;1.37;1.27;;;;;;;22.56;42.24;101370.64;1641202;86;26501;-78
2022/06/03 11:47:28;;;;;;;1.82;1.57;;;;;;;22.55;42.39;101363.50;1610012;86;27657;-78
2022/06/03 11:49:54;;;;;;;1.27;1.20;;;;;;;22.45;42.79;101359.23;1614863;87;25931;-78
2022/06/03 11:52:22;;;;;;;2.92;1.20;;;;;;;22.43;41.36;101355.40;1586210;88;25859;-78
2022/06/03 11:54:51;;;;;;;1.80;1.32;;;;;;;22.51;42.42;101355.52;1610066;87;25755;-77
2022/06/03 11:57:19;;;;;;;2.72;1.37;;;;;;;22.62;42.44;101355.48;1576941;89;25936;-78
2022/06/03 12:00:00;;;;;;;1.07;1.00;;;;;;;22.68;41.98;101353.66;1593799;89;28307;-77
2022/06/03 12:02:50;;;;;;;1.15;1.00;;;;;;;22.78;41.94;101346.45;1600969;87;26532;-77
2022/06/03 12:05:24;;;;;;;2.40;1.77;;;;;;;22.92;41.98;101349.13;1594431;88;26808;-77
2022/06/03 12:08:12;;;;;;;1.45;1.35;;;;;;;22.95;40.87;101346.44;1577531;88;26498;-77
2022/06/03 12:11:03;;;;;;;2.42;1.40;;;;;;;22.87;41.39;101342.77;1598197;88;25853;-77
2022/06/03 12:13:33;;;;;;;1.32;1.22;;;;;;;22.91;41.94;101337.09;1582864;89;27499;-77
2022/06/03 12:16:09;;;;;;;2.85;1.60;;;;;;;22.99;41.56;101340.22;1602790;88;25767;-78
2022/06/03 12:18:43;;;;;;;1.98;1.45;;;;;;;23.12;42.84;101333.58;1603361;88;25854;-78
2022/06/03 12:21:30;;;;;;;2.35;1.30;;;;;;;23.25;42.74;101338.69;1574477;89;25759;-78
2022/06/03 12:24:17;;;;;;;1.82;1.15;;;;;;;23.40;42.86;101332.09;1557982;89;25832;-78
2022/06/03 12:26:47;;;;;;;2.00;1.15;;;;;;;23.59;42.34;101329.86;1573937;91;29183;-78
2022/06/03 12:29:30;;;;;;;1.92;1.00;;;;;;;23.73;42.88;101329.24;1581186;90;25859;-78
2022/06/03 12:32:11;;;;;;;2.65;2.12;;;;;;;23.81;42.43;101328.48;1603518;88;25931;-78
2022/06/03 12:34:37;;;;;;;2.70;1.92;;;;;;;23.80;42.08;101322.20;1602865;89;26040;-79
2022/06/03 12:37:29;;;;;;;1.45;1.35;;;;;;;23.86;42.48;101319.81;1602965;89;25785;-79
2022/06/03 12:40:25;;;;;;;2.65;1.50;;;;;;;23.90;42.26;101321.48;1603487;89;27543;-78
2022/06/03 12:42:51;;;;;;;2.02;1.15;;;;;;;23.98;42.49;101315.54;1602841;89;26556;-77
2022/06/03 12:45:32;;;;;;;1.30;1.20;;;;;;;24.07;42.37;101312.13;1602927;89;25908;-75
2022/06/03 12:47:58;;;;;;;2.58;1.20;;;;;;;24.18;42.45;101310.31;1603022;89;25830;-76
2022/06/03 12:50:41;;;;;;;1.67;1.25;;;;;;;24.23;40.88;101307.07;1602032;89;25815;-76
2022/06/03 12:53:28;;;;;;;1.92;1.55;;;;;;;24.32;42.25;101311.00;1569666;89;28135;-78
2022/06/03 12:56:02;;;;;;;1.60;1.50;;;;;;;24.44;41.11;101310.84;1580585;90;26497;-77
2022/06/03 12:58:46;;;;;;;3.30;1.20;;;;;;;24.40;39.92;101311.87;1587656;89;25937;-77
2022/06/03 13:01:29;;;;;;;2.55;1.20;;;;;;;24.26;39.38;101313.95;1612586;88;26018;-78
2022/06/03 13:03:55;;;;;;;3.87;1.82;;;;;;;24.21;40.22;101309.24;1556632;88;66968;-83
2022/06/03 13:06:27;;;;;;;1.60;1.50;;;;;;;24.21;39.87;101305.67;1559215;90;27499;-83
2022/06/03 13:11:44;;;;;;;2.58;1.15;;;;;;;24.30;40.37;101305.48;1567055;88;25382;-79
2022/06/03 13:14:28;;;;;;;2.52;1.57;;;;;;;24.41;39.68;101303.13;1570102;90;26604;-79
2022/06/03 13:16:55;;;;;;;1.85;1.30;;;;;;;24.50;39.95;101301.57;1564488;90;52967;-79
2022/06/03 13:19:30;;;;;;;2.80;1.40;;;;;;;24.46;38.50;101302.62;1572084;90;28242;-79
2022/06/03 13:22:09;;;;;;;1.40;1.30;;;;;;;24.36;38.24;101301.17;1563697;90;25925;-79
2022/06/03 13:24:38;;;;;;;1.25;1.15;;;;;;;24.39;39.30;101299.30;1574003;89;25834;-80
2022/06/03 13:27:25;;;;;;;1.50;1.40;;;;;;;24.54;40.32;101293.11;1571333;89;26631;-83
2022/06/03 13:29:57;;;;;;;2.40;1.17;;;;;;;24.70;40.30;101289.38;1572630;89;26093;-80